Time;durP1;ratioP1;P1;durP2;ratioP2;P2;SDS_P1;SDS_P2;PMS_P1;PMS_P2;Temp;Humidity;BMP_temperature;BMP_pressure;BME280_temperature;BME280_humidity;BME280_pressure;Samples;Min_cycle;Max_cycle;Signal;HPM_P1;HPM_P2
2022/12/10 00:02:04;;;;;;;25.20;17.60;;;5.40;99.90;;;;;;5033313;28;20210;-58
2022/12/10 00:04:32;;;;;;;28.00;18.33;;;5.40;99.90;;;;;;5033236;28;20234;-58
2022/12/10 00:06:59;;;;;;;27.77;17.83;;;5.40;99.90;;;;;;5032721;28;20212;-56
2022/12/10 00:09:25;;;;;;;25.77;18.63;;;5.30;99.90;;;;;;5033937;28;20203;-58
2022/12/10 00:11:52;;;;;;;27.63;18.97;;;5.30;99.90;;;;;;5033300;28;20209;-57
2022/12/10 00:14:19;;;;;;;25.83;18.30;;;5.30;99.90;;;;;;5033377;28;20228;-57
2022/12/10 00:16:46;;;;;;;25.57;18.23;;;5.20;99.90;;;;;;5032971;28;20210;-57
2022/12/10 00:19:13;;;;;;;30.73;19.87;;;5.20;99.90;;;;;;5033285;28;20220;-57
2022/12/10 00:21:43;;;;;;;26.37;19.10;;;5.20;99.90;;;;;;5033174;28;20216;-57
2022/12/10 00:24:10;;;;;;;27.83;18.23;;;5.20;99.90;;;;;;5032890;28;20350;-57
2022/12/10 00:26:39;;;;;;;27.60;19.07;;;5.20;99.90;;;;;;5033110;28;20206;-57
2022/12/10 00:29:10;;;;;;;25.70;18.13;;;5.30;99.90;;;;;;5033521;28;20206;-57
2022/12/10 00:31:38;;;;;;;26.20;17.43;;;5.30;99.90;;;;;;5033488;28;20322;-56
2022/12/10 00:34:08;;;;;;;24.00;17.13;;;5.30;99.90;;;;;;5033332;28;20230;-58
2022/12/10 00:36:38;;;;;;;22.27;16.30;;;5.40;99.90;;;;;;5033346;28;20213;-56
2022/12/10 00:39:06;;;;;;;23.50;17.07;;;5.40;99.90;;;;;;5033678;28;20305;-57
2022/12/10 00:41:33;;;;;;;22.87;15.30;;;5.40;99.90;;;;;;5033963;28;20589;-56
2022/12/10 00:44:00;;;;;;;20.57;14.73;;;5.20;99.90;;;;;;5033414;28;20317;-56
2022/12/10 00:46:27;;;;;;;21.27;14.63;;;5.10;99.90;;;;;;5033228;28;20591;-57
2022/12/10 00:48:54;;;;;;;18.13;13.40;;;5.00;99.90;;;;;;5034360;28;20574;-57
2022/12/10 00:51:22;;;;;;;20.10;14.50;;;4.90;99.90;;;;;;5034727;28;20217;-56
2022/12/10 00:53:51;;;;;;;16.97;12.57;;;4.80;99.90;;;;;;5033811;28;20276;-57
2022/12/10 00:56:22;;;;;;;17.87;14.03;;;4.90;99.90;;;;;;5033407;28;20210;-57
2022/12/10 00:58:49;;;;;;;18.73;14.13;;;5.00;99.90;;;;;;5033522;28;20631;-57
2022/12/10 01:01:18;;;;;;;21.90;14.50;;;5.00;99.90;;;;;;5033824;28;20260;-56
2022/12/10 01:03:46;;;;;;;18.80;13.33;;;5.00;99.90;;;;;;5032621;28;20321;-56
2022/12/10 01:06:15;;;;;;;18.40;13.63;;;5.00;99.90;;;;;;5032333;28;20275;-56
2022/12/10 01:08:43;;;;;;;19.57;14.50;;;5.00;99.90;;;;;;5032821;28;20201;-56
2022/12/10 01:11:12;;;;;;;19.50;14.00;;;5.00;99.90;;;;;;5032465;28;20689;-57
2022/12/10 01:13:41;;;;;;;22.57;14.93;;;5.00;99.90;;;;;;5032751;28;20761;-58
2022/12/10 01:16:09;;;;;;;20.40;14.83;;;5.10;99.90;;;;;;5032402;28;20222;-57
2022/12/10 01:18:36;;;;;;;20.17;14.90;;;5.10;99.90;;;;;;5032229;28;20553;-57
2022/12/10 01:21:04;;;;;;;20.00;14.17;;;5.10;99.90;;;;;;5032886;28;20202;-57
2022/12/10 01:23:33;;;;;;;20.77;13.63;;;5.00;99.90;;;;;;5032587;28;20324;-57
2022/12/10 01:26:01;;;;;;;19.00;13.40;;;4.80;99.90;;;;;;5032800;28;20216;-57
2022/12/10 01:28:30;;;;;;;18.87;14.20;;;4.70;99.90;;;;;;5032328;28;20214;-57
2022/12/10 01:31:01;;;;;;;16.27;13.40;;;4.70;99.90;;;;;;5032633;28;20264;-57
2022/12/10 01:33:28;;;;;;;21.23;14.43;;;4.80;99.90;;;;;;5032885;28;20236;-57
2022/12/10 01:35:54;;;;;;;17.97;13.73;;;4.70;99.90;;;;;;5032884;28;20206;-59
2022/12/10 01:38:22;;;;;;;21.13;13.80;;;4.70;99.90;;;;;;5032204;28;20213;-58
2022/12/10 01:40:49;;;;;;;19.50;13.63;;;4.60;99.90;;;;;;5032746;28;20585;-58
2022/12/10 01:43:16;;;;;;;19.47;13.53;;;4.50;99.90;;;;;;5035264;28;20624;-57
2022/12/10 01:45:43;;;;;;;19.10;13.30;;;4.50;99.90;;;;;;5036043;28;20206;-58
2022/12/10 01:48:11;;;;;;;18.97;13.30;;;4.50;99.90;;;;;;5035796;28;20212;-56
2022/12/10 01:50:38;;;;;;;17.53;13.40;;;4.60;99.90;;;;;;5036198;28;20206;-56
2022/12/10 01:53:06;;;;;;;19.00;13.73;;;4.70;99.90;;;;;;5036098;28;20733;-56
2022/12/10 01:55:48;;;;;;;21.00;14.70;;;4.70;99.90;;;;;;5036095;28;20212;-56
2022/12/10 01:58:17;;;;;;;17.17;12.97;;;4.80;99.90;;;;;;5035760;28;20620;-57
2022/12/10 02:01:00;;;;;;;18.30;13.07;;;4.80;99.90;;;;;;5035858;28;20318;-57
2022/12/10 02:03:39;;;;;;;18.67;13.50;;;4.90;99.90;;;;;;5035779;28;20222;-57
2022/12/10 02:06:16;;;;;;;19.03;13.70;;;5.00;99.90;;;;;;5035767;28;20558;-57
2022/12/10 02:08:55;;;;;;;18.13;13.73;;;5.00;99.90;;;;;;5035833;28;20210;-57
2022/12/10 02:11:29;;;;;;;18.07;13.67;;;5.00;99.90;;;;;;5035755;28;20206;-57
2022/12/10 02:14:00;;;;;;;22.87;13.77;;;4.90;99.90;;;;;;5036027;28;20230;-57
2022/12/10 02:16:34;;;;;;;19.07;13.13;;;4.90;99.90;;;;;;5035333;28;20327;-57
2022/12/10 02:19:17;;;;;;;15.97;13.27;;;4.90;99.90;;;;;;5035605;28;20293;-57
2022/12/10 02:21:47;;;;;;;18.47;13.00;;;4.90;99.90;;;;;;5036052;28;20385;-57
2022/12/10 02:24:19;;;;;;;16.10;12.73;;;4.90;99.90;;;;;;5035435;28;20680;-56
2022/12/10 02:26:52;;;;;;;20.77;14.67;;;4.90;99.90;;;;;;5034590;28;20663;-57
2022/12/10 02:29:24;;;;;;;18.07;13.17;;;4.90;99.90;;;;;;5035465;28;20210;-57
2022/12/10 02:31:55;;;;;;;17.30;13.47;;;4.90;99.90;;;;;;5035312;28;20202;-56
2022/12/10 02:34:24;;;;;;;19.20;13.00;;;4.90;99.90;;;;;;5034692;28;20237;-57
2022/12/10 02:36:54;;;;;;;20.40;13.60;;;4.90;99.90;;;;;;5034496;28;20214;-57
2022/12/10 02:39:25;;;;;;;18.93;13.60;;;4.80;99.90;;;;;;5034852;28;20202;-56
2022/12/10 02:41:54;;;;;;;18.70;13.90;;;4.80;99.90;;;;;;5035285;28;20218;-56
2022/12/10 02:44:25;;;;;;;19.67;13.43;;;4.70;99.90;;;;;;5034545;28;20698;-57
2022/12/10 02:46:55;;;;;;;16.07;12.67;;;4.70;99.90;;;;;;5034376;28;20214;-57
2022/12/10 02:49:24;;;;;;;17.90;13.50;;;4.70;99.90;;;;;;5034755;28;20206;-57
2022/12/10 02:51:51;;;;;;;17.40;13.57;;;4.70;99.90;;;;;;5034486;28;20206;-57
2022/12/10 02:54:40;;;;;;;17.40;13.07;;;4.70;99.90;;;;;;5034535;28;20222;-57
2022/12/10 02:57:26;;;;;;;18.60;13.47;;;4.70;99.90;;;;;;5034094;28;20298;-56
2022/12/10 03:00:04;;;;;;;20.60;14.00;;;4.60;99.90;;;;;;5034751;28;20293;-57
2022/12/10 03:02:38;;;;;;;18.63;13.30;;;4.70;99.90;;;;;;5034364;28;20267;-56
2022/12/10 03:05:15;;;;;;;18.80;14.27;;;4.70;99.90;;;;;;5034411;28;20226;-57
2022/12/10 03:07:48;;;;;;;19.17;14.10;;;4.80;99.90;;;;;;5033757;28;20264;-57
2022/12/10 03:10:21;;;;;;;17.50;12.47;;;4.80;99.90;;;;;;5034351;28;20206;-57
2022/12/10 03:12:51;;;;;;;19.27;12.97;;;4.70;99.90;;;;;;5034188;28;20206;-57
2022/12/10 03:15:22;;;;;;;18.83;13.87;;;4.70;99.90;;;;;;5034420;28;20221;-57
2022/12/10 03:17:50;;;;;;;19.67;13.97;;;4.60;99.90;;;;;;5033889;28;20217;-57
2022/12/10 03:20:18;;;;;;;21.23;14.37;;;4.60;99.90;;;;;;5034193;28;20210;-57
2022/12/10 03:22:47;;;;;;;21.87;14.70;;;4.50;99.90;;;;;;5034057;28;20206;-57
2022/12/10 03:25:18;;;;;;;21.37;14.93;;;4.30;99.90;;;;;;5033792;28;20218;-57
2022/12/10 03:27:46;;;;;;;20.97;15.33;;;4.30;99.90;;;;;;5033612;28;20621;-57
2022/12/10 03:30:13;;;;;;;21.87;15.93;;;4.30;99.90;;;;;;5033823;28;20229;-57
2022/12/10 03:32:43;;;;;;;19.60;14.50;;;4.30;99.90;;;;;;5033771;28;20217;-57
2022/12/10 03:35:11;;;;;;;20.23;15.33;;;4.40;99.90;;;;;;5033860;28;20224;-57
2022/12/10 03:37:38;;;;;;;19.73;14.47;;;4.40;99.90;;;;;;5033075;28;20726;-57
2022/12/10 03:40:08;;;;;;;20.50;14.40;;;4.50;99.90;;;;;;5033738;28;20210;-57
2022/12/10 03:42:36;;;;;;;19.17;14.30;;;4.50;99.90;;;;;;5033712;28;20589;-57
2022/12/10 03:45:04;;;;;;;19.57;14.53;;;4.60;99.90;;;;;;5033931;28;20226;-57
2022/12/10 03:47:31;;;;;;;20.90;15.20;;;4.70;99.90;;;;;;5033123;28;20206;-57
2022/12/10 03:49:59;;;;;;;18.37;13.80;;;4.70;99.90;;;;;;5033265;28;20209;-57
2022/12/10 03:52:26;;;;;;;20.00;14.50;;;4.70;99.90;;;;;;5033277;28;20574;-57
2022/12/10 03:54:53;;;;;;;18.90;13.83;;;4.70;99.90;;;;;;5033570;28;20223;-57
2022/12/10 03:57:19;;;;;;;19.77;14.30;;;4.70;99.90;;;;;;5032813;28;20202;-56
2022/12/10 03:59:46;;;;;;;21.90;14.37;;;4.60;99.90;;;;;;5033319;28;20203;-58
2022/12/10 04:02:13;;;;;;;22.20;14.73;;;4.60;99.90;;;;;;5033651;28;20693;-57
2022/12/10 04:04:40;;;;;;;21.27;14.83;;;4.60;99.90;;;;;;5033270;28;20269;-57
2022/12/10 04:07:08;;;;;;;20.17;14.10;;;4.70;99.90;;;;;;5033056;28;20216;-57
2022/12/10 04:09:35;;;;;;;18.10;14.03;;;4.70;99.90;;;;;;5033723;28;20210;-58
2022/12/10 04:12:02;;;;;;;20.13;14.60;;;4.70;99.90;;;;;;5034093;28;20206;-58
2022/12/10 04:17:13;;;;;;;18.90;13.87;;;4.90;99.90;;;;;;5033536;28;20217;-58
2022/12/10 04:19:42;;;;;;;17.17;12.80;;;4.90;99.90;;;;;;5034589;28;20305;-58
2022/12/10 04:27:40;;;;;;;17.80;12.73;;;5.10;99.90;;;;;;5033997;28;20209;-57
2022/12/10 04:30:10;;;;;;;17.37;12.60;;;5.10;99.90;;;;;;5034980;28;20210;-57
2022/12/10 04:32:37;;;;;;;16.60;13.07;;;5.00;99.90;;;;;;5034579;28;20745;-57
2022/12/10 04:35:05;;;;;;;16.03;12.77;;;4.70;99.90;;;;;;5035438;28;20296;-57
2022/12/10 04:37:33;;;;;;;17.90;12.93;;;4.50;99.90;;;;;;5034111;28;20213;-57
2022/12/10 04:40:00;;;;;;;15.73;12.07;;;4.50;99.90;;;;;;5034982;28;20217;-57
2022/12/10 04:42:26;;;;;;;17.77;12.37;;;4.60;99.90;;;;;;5034803;28;20237;-57
2022/12/10 04:44:53;;;;;;;18.70;12.73;;;4.70;99.90;;;;;;5035162;28;20226;-57
2022/12/10 04:47:20;;;;;;;15.60;12.47;;;4.80;99.90;;;;;;5034326;28;20202;-57
2022/12/10 04:49:47;;;;;;;17.50;12.90;;;4.80;99.90;;;;;;5034846;28;20206;-57
2022/12/10 04:52:15;;;;;;;16.47;12.23;;;4.90;99.90;;;;;;5034501;28;20690;-57
2022/12/10 04:54:44;;;;;;;16.37;13.00;;;4.90;99.90;;;;;;5033814;28;20290;-57
2022/12/10 04:57:11;;;;;;;20.00;14.17;;;4.90;99.90;;;;;;5033402;28;20770;-57
2022/12/10 04:59:39;;;;;;;16.67;13.00;;;4.90;99.90;;;;;;5033761;28;20257;-57
2022/12/10 05:02:07;;;;;;;17.17;13.27;;;4.90;99.90;;;;;;5033738;28;20225;-57
2022/12/10 05:04:34;;;;;;;18.27;13.10;;;4.90;99.90;;;;;;5033264;28;20226;-57
2022/12/10 05:07:01;;;;;;;17.47;13.20;;;4.90;99.90;;;;;;5032535;28;20471;-57
2022/12/10 05:09:28;;;;;;;17.00;12.73;;;4.90;99.90;;;;;;5032669;28;20209;-57
2022/12/10 05:11:56;;;;;;;16.57;13.13;;;5.00;99.90;;;;;;5032834;28;20202;-57
2022/12/10 05:14:23;;;;;;;17.00;12.70;;;5.00;99.90;;;;;;5032561;28;20709;-57
2022/12/10 05:16:50;;;;;;;15.73;12.60;;;5.00;99.90;;;;;;5032544;28;20833;-57
2022/12/10 05:19:19;;;;;;;15.30;12.27;;;5.00;99.90;;;;;;5036445;28;20202;-57
2022/12/10 05:24:30;;;;;;;18.97;13.90;;;5.00;99.90;;;;;;5036459;28;20364;-57
2022/12/10 05:26:59;;;;;;;20.07;15.33;;;4.90;99.90;;;;;;5035777;28;20225;-56
2022/12/10 05:29:26;;;;;;;18.03;13.87;;;4.80;99.90;;;;;;5036064;28;20221;-56
2022/12/10 05:31:53;;;;;;;16.80;13.63;;;4.70;99.90;;;;;;5036469;28;20210;-57
2022/12/10 05:34:20;;;;;;;17.50;13.07;;;4.60;99.90;;;;;;5035854;28;20233;-55
2022/12/10 05:36:47;;;;;;;17.20;12.83;;;4.40;99.90;;;;;;5035884;28;20212;-56
2022/12/10 05:39:13;;;;;;;16.23;12.67;;;4.20;99.90;;;;;;5036401;28;20600;-56
2022/12/10 05:41:41;;;;;;;23.27;14.67;;;4.00;99.90;;;;;;5036157;28;20212;-57
2022/12/10 05:44:11;;;;;;;17.23;13.07;;;4.00;99.90;;;;;;5035896;28;20221;-56
2022/12/10 05:46:38;;;;;;;19.07;13.50;;;4.00;99.90;;;;;;5035185;28;20206;-57
2022/12/10 05:49:06;;;;;;;18.13;13.40;;;3.80;99.90;;;;;;5035560;28;20663;-56
2022/12/10 05:51:35;;;;;;;20.40;13.03;;;3.80;99.90;;;;;;5036255;28;20210;-56
2022/12/10 05:54:03;;;;;;;20.40;13.47;;;3.90;99.90;;;;;;5035848;28;20226;-56
2022/12/10 05:56:30;;;;;;;16.67;12.90;;;4.00;99.90;;;;;;5035625;28;20296;-56
2022/12/10 05:59:00;;;;;;;17.93;13.13;;;4.10;99.90;;;;;;5035559;28;20584;-56
2022/12/10 06:01:30;;;;;;;19.93;14.10;;;4.10;99.90;;;;;;5035633;28;20220;-56
2022/12/10 06:04:00;;;;;;;21.10;15.13;;;4.00;99.90;;;;;;5036035;28;20226;-56
2022/12/10 06:06:29;;;;;;;18.10;13.73;;;4.00;99.90;;;;;;5035531;28;20207;-57
2022/12/10 06:08:57;;;;;;;19.57;14.47;;;4.00;99.90;;;;;;5035371;28;20216;-56
2022/12/10 06:11:26;;;;;;;21.80;14.63;;;4.00;99.90;;;;;;5035254;28;20210;-56
2022/12/10 06:13:54;;;;;;;21.90;15.90;;;4.00;99.90;;;;;;5035287;28;20230;-56
2022/12/10 06:16:21;;;;;;;22.80;16.33;;;4.00;99.90;;;;;;5035498;28;20222;-56
2022/12/10 06:18:49;;;;;;;18.53;13.53;;;3.90;99.90;;;;;;5035034;28;20210;-57
2022/12/10 06:21:18;;;;;;;19.10;13.43;;;3.90;99.90;;;;;;5035484;28;20206;-56
2022/12/10 06:23:46;;;;;;;19.27;14.27;;;4.00;99.90;;;;;;5035349;28;20620;-57
2022/12/10 06:26:15;;;;;;;19.63;14.70;;;4.20;99.90;;;;;;5035051;28;20226;-56
2022/12/10 06:28:42;;;;;;;24.00;15.53;;;4.10;99.90;;;;;;5034033;28;20701;-57
2022/12/10 06:31:09;;;;;;;23.40;14.70;;;3.90;99.90;;;;;;5035042;28;20297;-57
2022/12/10 06:33:36;;;;;;;20.87;14.50;;;3.90;99.90;;;;;;5034966;28;20241;-56
2022/12/10 06:36:07;;;;;;;20.67;13.23;;;4.00;99.90;;;;;;5034920;28;20206;-56
2022/12/10 06:38:34;;;;;;;19.50;13.80;;;4.00;99.90;;;;;;5034149;28;20222;-56
2022/12/10 06:41:04;;;;;;;20.90;14.27;;;4.00;99.90;;;;;;5034772;28;20210;-56
2022/12/10 06:43:31;;;;;;;19.80;14.30;;;4.10;99.90;;;;;;5034773;28;20249;-57
2022/12/10 06:45:58;;;;;;;23.87;16.47;;;4.00;99.90;;;;;;5034724;28;20230;-56
2022/12/10 06:48:25;;;;;;;19.60;14.97;;;4.20;99.90;;;;;;5033951;28;20206;-57
2022/12/10 06:50:51;;;;;;;18.23;14.27;;;4.30;99.90;;;;;;5034721;28;20210;-57
2022/12/10 06:53:20;;;;;;;18.93;13.80;;;4.40;99.90;;;;;;5034536;28;20228;-57
2022/12/10 06:55:47;;;;;;;19.13;14.67;;;4.40;99.90;;;;;;5034362;28;20611;-57
2022/12/10 06:58:14;;;;;;;18.80;14.27;;;4.30;99.90;;;;;;5034287;28;20216;-57
2022/12/10 07:00:40;;;;;;;19.10;14.00;;;4.40;99.90;;;;;;5034546;28;20246;-56
2022/12/10 07:03:07;;;;;;;18.03;13.60;;;4.30;99.90;;;;;;5034348;28;20725;-56
2022/12/10 07:05:34;;;;;;;17.23;12.63;;;4.00;99.90;;;;;;5034414;28;20226;-56
2022/12/10 07:08:01;;;;;;;20.27;13.83;;;3.90;99.90;;;;;;5034108;28;20301;-57
2022/12/10 07:10:29;;;;;;;22.47;15.30;;;3.90;99.90;;;;;;5034701;28;20305;-57
2022/12/10 07:12:56;;;;;;;24.17;16.23;;;4.00;99.90;;;;;;5034248;28;20717;-57
2022/12/10 07:15:24;;;;;;;19.47;14.00;;;4.20;99.90;;;;;;5034458;28;20198;-56
2022/12/10 07:17:52;;;;;;;19.60;13.87;;;4.20;99.90;;;;;;5033760;28;20209;-57
2022/12/10 07:20:19;;;;;;;18.50;13.60;;;4.40;99.90;;;;;;5034356;28;20210;-57
2022/12/10 07:22:46;;;;;;;19.50;13.30;;;4.50;99.90;;;;;;5033993;28;20206;-57
2022/12/10 07:25:13;;;;;;;21.23;14.37;;;4.60;99.90;;;;;;5034205;28;20226;-56
2022/12/10 07:27:41;;;;;;;17.63;13.37;;;4.60;99.90;;;;;;5034058;28;20249;-58
2022/12/10 07:30:09;;;;;;;16.43;12.87;;;4.70;99.90;;;;;;5034232;28;20207;-58
2022/12/10 07:32:36;;;;;;;16.87;12.57;;;4.80;99.90;;;;;;5033761;28;20202;-56
2022/12/10 07:35:02;;;;;;;20.13;14.30;;;4.80;99.90;;;;;;5034316;28;20212;-58
2022/12/10 07:37:29;;;;;;;17.80;12.93;;;4.70;99.90;;;;;;5033472;28;20213;-57
2022/12/10 07:39:56;;;;;;;24.87;15.93;;;4.80;99.90;;;;;;5032846;28;20682;-57
2022/12/10 07:42:23;;;;;;;19.87;13.80;;;4.80;99.90;;;;;;5033752;28;20210;-57
2022/12/10 07:44:51;;;;;;;22.47;15.53;;;4.90;99.90;;;;;;5033369;28;20769;-57
2022/12/10 07:47:19;;;;;;;24.77;15.90;;;4.80;99.90;;;;;;5033263;28;20206;-57
2022/12/10 07:49:46;;;;;;;22.93;16.23;;;4.70;99.90;;;;;;5033462;28;20207;-57
2022/12/10 07:52:13;;;;;;;21.97;15.17;;;4.60;99.90;;;;;;5033937;28;20202;-57
2022/12/10 07:54:39;;;;;;;20.67;14.57;;;4.70;99.90;;;;;;5033858;28;20244;-57
2022/12/10 07:57:06;;;;;;;21.17;15.57;;;4.70;99.90;;;;;;5033229;28;20301;-57
2022/12/10 07:59:33;;;;;;;19.20;14.33;;;4.60;99.90;;;;;;5033271;28;20297;-57
2022/12/10 08:02:01;;;;;;;25.27;16.93;;;4.70;99.90;;;;;;5033357;28;20209;-57
2022/12/10 08:04:29;;;;;;;71.50;39.93;;;4.70;99.90;;;;;;5033112;28;20574;-57
2022/12/10 08:06:56;;;;;;;21.70;14.43;;;4.80;99.90;;;;;;5032971;28;20202;-57
2022/12/10 08:09:23;;;;;;;19.97;14.50;;;4.70;99.90;;;;;;5033097;28;20216;-57
2022/12/10 08:11:50;;;;;;;17.83;13.13;;;4.70;99.90;;;;;;5032960;28;20642;-57
2022/12/10 08:14:17;;;;;;;21.37;15.50;;;4.80;99.90;;;;;;5032727;28;20234;-57
2022/12/10 08:16:44;;;;;;;17.67;13.63;;;4.90;99.90;;;;;;5032837;28;20230;-57
2022/12/10 08:19:12;;;;;;;19.70;14.53;;;4.90;99.90;;;;;;5032416;28;20301;-57
2022/12/10 08:21:39;;;;;;;19.37;14.43;;;5.00;99.90;;;;;;5033143;28;20217;-57
2022/12/10 08:24:06;;;;;;;19.37;14.10;;;5.00;99.90;;;;;;5032928;28;20574;-57
2022/12/10 08:26:33;;;;;;;24.53;14.57;;;4.80;99.90;;;;;;5032886;28;20230;-57
2022/12/10 08:29:00;;;;;;;22.60;15.13;;;4.80;99.90;;;;;;5032510;28;20206;-57
2022/12/10 08:31:28;;;;;;;19.87;14.13;;;4.70;99.90;;;;;;5032712;28;20210;-56
2022/12/10 08:33:55;;;;;;;19.20;14.20;;;4.60;99.90;;;;;;5032845;28;20380;-57
2022/12/10 08:36:23;;;;;;;19.43;13.67;;;4.60;99.90;;;;;;5032773;28;20206;-57
2022/12/10 08:38:50;;;;;;;20.83;15.03;;;4.50;99.90;;;;;;5032347;28;20210;-57
2022/12/10 08:41:19;;;;;;;21.60;13.93;;;4.40;99.90;;;;;;5033084;28;20210;-57
2022/12/10 08:43:47;;;;;;;18.80;13.73;;;4.20;99.90;;;;;;5032392;28;20226;-57
2022/12/10 08:46:15;;;;;;;18.83;14.70;;;4.10;99.90;;;;;;5032771;28;20234;-57
2022/12/10 08:48:43;;;;;;;18.97;14.63;;;4.20;99.90;;;;;;5031940;28;20214;-57
2022/12/10 08:51:14;;;;;;;20.43;14.00;;;4.00;99.90;;;;;;5032123;28;20210;-57
2022/12/10 08:53:43;;;;;;;19.77;14.03;;;4.00;99.90;;;;;;5032411;28;20246;-56
2022/12/10 08:56:09;;;;;;;18.20;13.53;;;4.10;99.90;;;;;;5032430;28;20212;-57
2022/12/10 08:58:37;;;;;;;19.63;13.93;;;4.20;99.90;;;;;;5031581;28;20212;-57
2022/12/10 09:01:07;;;;;;;19.57;14.00;;;4.50;99.90;;;;;;5032283;28;20243;-57
2022/12/10 09:03:35;;;;;;;21.03;13.57;;;4.70;99.90;;;;;;5032188;28;20673;-57
2022/12/10 09:06:04;;;;;;;18.77;13.70;;;4.60;99.90;;;;;;5032369;28;20652;-56
2022/12/10 09:08:31;;;;;;;20.00;14.07;;;4.50;99.90;;;;;;5031403;28;20741;-56
2022/12/10 09:10:59;;;;;;;24.03;14.40;;;4.40;99.90;;;;;;5032242;28;20206;-56
2022/12/10 09:13:26;;;;;;;19.43;14.80;;;4.40;99.90;;;;;;5032067;28;20229;-56
2022/12/10 09:15:53;;;;;;;19.70;14.27;;;4.40;99.90;;;;;;5031888;28;20206;-56
2022/12/10 09:18:20;;;;;;;19.63;14.60;;;4.50;99.90;;;;;;5031456;28;20217;-56
2022/12/10 09:20:47;;;;;;;19.63;14.97;;;4.50;99.90;;;;;;5032137;28;20205;-57
2022/12/10 09:23:13;;;;;;;19.33;14.37;;;4.60;99.90;;;;;;5032092;28;20229;-56
2022/12/10 09:25:40;;;;;;;19.93;13.67;;;4.70;99.90;;;;;;5031914;28;20232;-56
2022/12/10 09:28:09;;;;;;;21.77;14.53;;;4.70;99.90;;;;;;5031495;28;20681;-56
2022/12/10 09:30:35;;;;;;;17.60;13.33;;;4.70;99.90;;;;;;5032011;28;20554;-56
2022/12/10 09:33:02;;;;;;;18.47;13.70;;;4.70;99.90;;;;;;5031821;28;20256;-56
2022/12/10 09:35:29;;;;;;;21.67;13.67;;;4.60;99.90;;;;;;5032130;28;20210;-56
2022/12/10 09:37:56;;;;;;;18.37;13.57;;;4.60;99.90;;;;;;5031388;28;20202;-56
2022/12/10 09:40:38;;;;;;;16.93;12.77;;;4.50;99.90;;;;;;5031737;28;20683;-56
2022/12/10 09:43:11;;;;;;;19.57;14.10;;;4.60;99.90;;;;;;5031962;28;20233;-56
2022/12/10 09:45:50;;;;;;;18.63;13.43;;;4.80;99.90;;;;;;5031721;28;20725;-57
2022/12/10 09:48:25;;;;;;;17.07;13.10;;;5.00;99.90;;;;;;5031336;28;20297;-56
2022/12/10 09:50:57;;;;;;;20.27;13.30;;;5.10;99.90;;;;;;5032013;28;20195;-57
2022/12/10 09:53:27;;;;;;;18.30;13.57;;;5.10;99.90;;;;;;5031856;28;20222;-57
2022/12/10 09:55:54;;;;;;;17.73;13.40;;;5.20;99.90;;;;;;5031863;28;20214;-57
2022/12/10 09:58:25;;;;;;;15.90;13.00;;;5.30;99.90;;;;;;5031090;28;20245;-57
2022/12/10 10:00:58;;;;;;;17.90;13.87;;;5.40;99.90;;;;;;5031735;28;20423;-57
2022/12/10 10:03:25;;;;;;;18.47;13.70;;;5.50;99.90;;;;;;5033240;28;20261;-57
2022/12/10 10:05:53;;;;;;;18.13;13.70;;;5.40;99.90;;;;;;5035374;28;20233;-57
2022/12/10 10:08:28;;;;;;;18.70;13.30;;;5.30;99.90;;;;;;5034520;28;20590;-57
2022/12/10 10:10:56;;;;;;;19.17;14.87;;;5.40;99.90;;;;;;5035252;28;20700;-57
2022/12/10 10:13:31;;;;;;;17.23;13.57;;;5.60;99.90;;;;;;5035425;28;20539;-58
2022/12/10 10:16:08;;;;;;;19.70;14.33;;;5.70;99.90;;;;;;5035635;28;20267;-57
2022/12/10 10:18:39;;;;;;;16.80;13.23;;;5.50;99.90;;;;;;5034863;28;20289;-57
2022/12/10 10:21:12;;;;;;;18.33;13.70;;;5.30;99.90;;;;;;5035001;28;20209;-57
2022/12/10 10:23:41;;;;;;;16.77;12.93;;;5.30;99.90;;;;;;5035053;28;20702;-56
2022/12/10 10:26:08;;;;;;;20.83;13.43;;;5.30;99.90;;;;;;5034961;28;20226;-57
2022/12/10 10:28:37;;;;;;;20.40;14.77;;;5.40;99.90;;;;;;5034845;28;20301;-57
2022/12/10 10:31:13;;;;;;;17.77;13.03;;;5.50;99.90;;;;;;5035155;28;20237;-57
2022/12/10 10:33:50;;;;;;;16.17;12.87;;;5.80;99.90;;;;;;5034924;28;20276;-58
2022/12/10 10:36:16;;;;;;;16.30;13.07;;;5.80;99.90;;;;;;5035101;28;20639;-57
2022/12/10 10:38:49;;;;;;;17.00;12.93;;;6.00;99.90;;;;;;5034207;28;20210;-57
2022/12/10 10:41:16;;;;;;;15.60;12.10;;;6.00;99.90;;;;;;5034751;28;20662;-58
2022/12/10 10:43:45;;;;;;;16.83;12.60;;;6.20;99.90;;;;;;5034600;28;20236;-58
2022/12/10 10:46:15;;;;;;;16.17;12.50;;;6.20;99.90;;;;;;5034752;28;20226;-59
2022/12/10 10:48:41;;;;;;;17.17;13.70;;;6.00;99.90;;;;;;5034085;28;20217;-58
2022/12/10 10:51:18;;;;;;;17.67;12.10;;;6.20;99.90;;;;;;5034611;28;20260;-59
2022/12/10 10:53:46;;;;;;;24.17;13.33;;;6.20;99.90;;;;;;5029351;28;20237;-59
2022/12/10 10:56:17;;;;;;;17.40;12.83;;;5.90;99.90;;;;;;5033493;28;20210;-56
2022/12/10 10:58:59;;;;;;;16.43;12.90;;;5.80;99.90;;;;;;5032768;28;20207;-58
2022/12/10 11:01:27;;;;;;;16.87;12.50;;;5.60;99.90;;;;;;5033072;28;20212;-55
2022/12/10 11:03:57;;;;;;;16.67;13.13;;;5.60;99.90;;;;;;5033125;28;20228;-54
2022/12/10 11:06:25;;;;;;;16.77;12.97;;;5.60;99.90;;;;;;5033136;28;20553;-55
2022/12/10 11:08:55;;;;;;;17.73;13.17;;;5.80;99.90;;;;;;5033097;28;20277;-56
2022/12/10 11:11:31;;;;;;;17.30;13.00;;;6.00;99.90;;;;;;5033587;28;20202;-56
2022/12/10 11:14:15;;;;;;;18.33;13.47;;;6.20;99.90;;;;;;5033301;28;20226;-60
2022/12/10 11:16:41;;;;;;;18.70;13.13;;;6.40;99.90;;;;;;5033587;28;20198;-61
2022/12/10 11:19:20;;;;;;;19.43;14.77;;;6.70;99.90;;;;;;5033703;28;20236;-60
2022/12/10 11:21:48;;;;;;;18.67;14.13;;;6.80;99.90;;;;;;5034713;28;20202;-60
2022/12/10 11:24:18;;;;;;;17.60;13.13;;;6.90;99.90;;;;;;5034733;28;20245;-59
2022/12/10 11:26:56;;;;;;;17.73;13.97;;;7.10;99.90;;;;;;5034592;28;20222;-59
2022/12/10 11:29:39;;;;;;;17.93;14.37;;;7.20;99.90;;;;;;5033512;28;20214;-60
2022/12/10 11:32:15;;;;;;;17.10;13.50;;;7.20;99.90;;;;;;5033973;28;20609;-60
2022/12/10 11:34:56;;;;;;;18.70;13.87;;;7.20;99.90;;;;;;5034484;28;20233;-61
2022/12/10 11:37:30;;;;;;;17.97;13.73;;;7.10;99.90;;;;;;5034418;28;20212;-60
2022/12/10 11:40:13;;;;;;;17.40;13.33;;;7.00;99.90;;;;;;5035556;28;20210;-60
2022/12/10 11:42:51;;;;;;;17.67;13.00;;;6.70;99.90;;;;;;5034338;28;20213;-60
2022/12/10 11:45:25;;;;;;;17.83;12.83;;;6.70;99.90;;;;;;5035758;28;20202;-58
2022/12/10 11:48:06;;;;;;;17.03;12.67;;;6.60;99.90;;;;;;5035187;28;20230;-60
2022/12/10 11:50:42;;;;;;;16.83;12.53;;;6.30;99.90;;;;;;5035736;28;20476;-60
2022/12/10 11:53:29;;;;;;;17.77;13.67;;;5.90;99.90;;;;;;5033490;28;20241;-59
2022/12/10 11:56:06;;;;;;;21.87;16.77;;;5.70;99.90;;;;;;5029681;28;20198;-57
2022/12/10 11:58:48;;;;;;;16.40;13.27;;;5.80;99.90;;;;;;5033918;28;20252;-57
2022/12/10 12:01:25;;;;;;;16.17;12.13;;;6.00;99.90;;;;;;5033342;28;20293;-58
2022/12/10 12:04:18;;;;;;;16.17;12.77;;;6.00;99.90;;;;;;5033259;28;20288;-57
2022/12/10 12:07:03;;;;;;;16.20;12.43;;;5.90;99.90;;;;;;5032683;28;20230;-57
2022/12/10 12:09:40;;;;;;;15.67;12.27;;;5.80;99.90;;;;;;5034315;28;20206;-58
2022/12/10 12:12:18;;;;;;;16.43;13.00;;;5.80;99.90;;;;;;5033113;28;20597;-58
2022/12/10 12:14:49;;;;;;;14.97;12.40;;;5.90;99.90;;;;;;5032497;28;20233;-57
2022/12/10 12:17:24;;;;;;;18.30;13.03;;;5.90;99.90;;;;;;5032219;28;20202;-56
2022/12/10 12:19:53;;;;;;;15.47;12.43;;;5.70;99.90;;;;;;5032675;28;20210;-58
2022/12/10 12:22:25;;;;;;;16.23;11.73;;;5.60;99.90;;;;;;5031965;28;20311;-57
2022/12/10 12:24:59;;;;;;;16.60;11.23;;;5.40;99.90;;;;;;5031904;28;20726;-57
2022/12/10 12:27:31;;;;;;;12.87;10.30;;;5.30;99.90;;;;;;5031029;28;20710;-57
2022/12/10 12:30:05;;;;;;;13.23;10.57;;;5.20;99.90;;;;;;5032059;28;20610;-59
2022/12/10 12:32:45;;;;;;;15.10;10.80;;;5.30;99.90;;;;;;5032997;28;20210;-58
2022/12/10 12:35:18;;;;;;;14.43;10.67;;;5.20;99.90;;;;;;5031183;28;20579;-57
2022/12/10 12:37:50;;;;;;;15.47;11.17;;;5.10;99.90;;;;;;5030839;28;20221;-55
2022/12/10 12:40:27;;;;;;;16.60;11.67;;;5.20;99.90;;;;;;5031725;28;20670;-55
2022/12/10 12:42:59;;;;;;;14.17;10.50;;;5.10;99.90;;;;;;5031238;28;20236;-55
2022/12/10 12:45:33;;;;;;;14.33;11.17;;;5.00;99.90;;;;;;5030166;28;20210;-55
2022/12/10 12:48:12;;;;;;;15.83;11.30;;;4.90;99.90;;;;;;5031483;28;20233;-55
2022/12/10 12:50:44;;;;;;;15.23;10.10;;;5.00;99.90;;;;;;5031698;28;20206;-54
2022/12/10 12:53:14;;;;;;;14.70;10.00;;;5.10;99.90;;;;;;5031403;28;20237;-55
2022/12/10 12:55:50;;;;;;;12.73;9.83;;;5.00;99.90;;;;;;5030826;28;20654;-55
2022/12/10 12:58:26;;;;;;;16.43;11.13;;;4.90;99.90;;;;;;5030883;28;20201;-54
2022/12/10 13:00:57;;;;;;;13.30;9.73;;;4.90;99.90;;;;;;5031220;28;20209;-55